Mc Connell Air Force Base
KIAB : now visible

Airfield :











YOU CAN JOIN US ON...

 
LOGIN :

Register | Disclaimer

   EN    FR    IT 

 









Legend :    VFR   Marginal VFR   IFR   Intensive IFR   Very Intensive IFR
Visi :
Ceiling :
>= 8 km
>= 3000ft
5 to 8 km
1000 to 3000 ft
1500m to 5 km
500 to 1000 ft
800 to 1500m
200 to 500 ft
< 800m
< 200 ft
Symbols :   Thunderstorms  Fog  Heavy snow  Heavy precipitations  Wind > 20 kt







- Airport Elevation : 1371 ft
- IATA code : IAB


KIAB - Mc Connell Air Force Base

CURRENT METAR :
  • 191356Z AUTO 15014G21KT 10SM CLR 28/20 A2985 RMK AO2 SLP093 T02820202

EXPIRED METARs :
  • 191256Z AUTO 15011KT 10SM CLR 26/20 A2985 RMK AO2 SLP093 T02640202
  • 191156Z AUTO 14011KT 10SM CLR 25/20 A2985 RMK AO2 SLP093 T02520200 10284 20251 53002

TAF TAF KIAB
Valid from the 19 at 10:00 until the 20 at 16:00 UTC


191000Z 1910/2016 16012KT 9999 FEW200 510102 QNH2981INS
BECMG 1914/1915 21020G25KT 9999 SKC QNH2979INS
BECMG 1923/1924 16012KT 9999 SKC 510102 QNH2978INS
BECMG 2014/2015 20020G25KT 9999 FEW390 QNH2981INS TX36/1920Z TN25/1911Z
KZKC FIR / North America



MET'MAP, your aeronautical weather chart ! - Copyright ORBIFLY December 2007 - Disclaimer

ORBIFLY MET'MAP TEAM :

Programming & Development : Alexandra Zaïnal
Concept & Development : Baudouin d'Aumeries
Co-Development & Prog : Marc-Olivier Méhu
Technical & hardware support : Manuel Goepfert

Contact : metmap@orbifly.com




SOURCES & CREDITS :

   NOAA       Earth
Advisory